sensor_id;sensor_type;location;lat;lon;timestamp;temperature;humidity
24224;DHT22;12359;49.716;9.212;2022-07-05T00:00:36;16.50;99.90
24224;DHT22;12359;49.716;9.212;2022-07-05T00:03:01;16.40;99.90
24224;DHT22;12359;49.716;9.212;2022-07-05T00:05:27;16.40;99.90
24224;DHT22;12359;49.716;9.212;2022-07-05T00:07:53;16.30;99.90
24224;DHT22;12359;49.716;9.212;2022-07-05T00:10:19;16.30;99.90
24224;DHT22;12359;49.716;9.212;2022-07-05T00:12:44;16.20;99.90
24224;DHT22;12359;49.716;9.212;2022-07-05T00:15:10;16.20;99.90
24224;DHT22;12359;49.716;9.212;2022-07-05T00:17:36;16.10;99.90
24224;DHT22;12359;49.716;9.212;2022-07-05T00:20:02;16.10;99.90
24224;DHT22;12359;49.716;9.212;2022-07-05T00:22:28;16.00;99.90
24224;DHT22;12359;49.716;9.212;2022-07-05T00:24:54;15.90;99.90
24224;DHT22;12359;49.716;9.212;2022-07-05T00:27:20;15.80;99.90
24224;DHT22;12359;49.716;9.212;2022-07-05T00:29:45;15.70;99.90
24224;DHT22;12359;49.716;9.212;2022-07-05T00:32:11;15.70;99.90
24224;DHT22;12359;49.716;9.212;2022-07-05T00:34:37;15.70;99.90
24224;DHT22;12359;49.716;9.212;2022-07-05T00:37:02;15.60;99.90
24224;DHT22;12359;49.716;9.212;2022-07-05T00:39:28;15.60;99.90
24224;DHT22;12359;49.716;9.212;2022-07-05T00:41:54;15.60;99.90
24224;DHT22;12359;49.716;9.212;2022-07-05T00:44:29;15.60;99.90
24224;DHT22;12359;49.716;9.212;2022-07-05T00:46:56;15.60;99.90
24224;DHT22;12359;49.716;9.212;2022-07-05T00:49:21;15.50;99.90
24224;DHT22;12359;49.716;9.212;2022-07-05T00:51:47;15.50;99.90
24224;DHT22;12359;49.716;9.212;2022-07-05T00:54:13;15.50;99.90
24224;DHT22;12359;49.716;9.212;2022-07-05T00:56:38;15.50;99.90
24224;DHT22;12359;49.716;9.212;2022-07-05T00:59:04;15.40;99.90
24224;DHT22;12359;49.716;9.212;2022-07-05T01:01:30;15.50;99.90
24224;DHT22;12359;49.716;9.212;2022-07-05T01:03:56;15.50;99.90
24224;DHT22;12359;49.716;9.212;2022-07-05T01:06:23;15.50;99.90
24224;DHT22;12359;49.716;9.212;2022-07-05T01:08:49;15.60;99.90
24224;DHT22;12359;49.716;9.212;2022-07-05T01:11:15;15.60;99.90
24224;DHT22;12359;49.716;9.212;2022-07-05T01:13:41;15.60;99.90
24224;DHT22;12359;49.716;9.212;2022-07-05T01:16:07;15.60;99.90
24224;DHT22;12359;49.716;9.212;2022-07-05T01:18:33;15.50;99.90
24224;DHT22;12359;49.716;9.212;2022-07-05T01:20:59;15.40;99.90
24224;DHT22;12359;49.716;9.212;2022-07-05T01:23:30;15.30;99.90
24224;DHT22;12359;49.716;9.212;2022-07-05T01:25:58;15.30;99.90
24224;DHT22;12359;49.716;9.212;2022-07-05T01:28:24;15.20;99.90
24224;DHT22;12359;49.716;9.212;2022-07-05T01:30:51;15.20;99.90
24224;DHT22;12359;49.716;9.212;2022-07-05T01:33:17;15.10;99.90
24224;DHT22;12359;49.716;9.212;2022-07-05T01:35:43;15.10;99.90
24224;DHT22;12359;49.716;9.212;2022-07-05T01:38:11;15.10;99.90
24224;DHT22;12359;49.716;9.212;2022-07-05T01:40:37;15.10;99.90
24224;DHT22;12359;49.716;9.212;2022-07-05T01:43:03;15.10;99.90
24224;DHT22;12359;49.716;9.212;2022-07-05T01:45:29;15.00;99.90
24224;DHT22;12359;49.716;9.212;2022-07-05T01:48:12;15.00;99.90
24224;DHT22;12359;49.716;9.212;2022-07-05T01:50:53;15.00;99.90
24224;DHT22;12359;49.716;9.212;2022-07-05T01:53:22;15.00;99.90
24224;DHT22;12359;49.716;9.212;2022-07-05T01:55:49;15.00;99.90
24224;DHT22;12359;49.716;9.212;2022-07-05T01:58:15;14.90;99.90
24224;DHT22;12359;49.716;9.212;2022-07-05T02:00:45;14.90;99.90
24224;DHT22;12359;49.716;9.212;2022-07-05T02:03:11;14.90;99.90
24224;DHT22;12359;49.716;9.212;2022-07-05T02:05:37;14.90;99.90
24224;DHT22;12359;49.716;9.212;2022-07-05T02:08:03;14.90;99.90
24224;DHT22;12359;49.716;9.212;2022-07-05T02:10:29;14.80;99.90
24224;DHT22;12359;49.716;9.212;2022-07-05T02:12:54;14.90;99.90
24224;DHT22;12359;49.716;9.212;2022-07-05T02:15:20;14.90;99.90
24224;DHT22;12359;49.716;9.212;2022-07-05T02:17:46;14.90;99.90
24224;DHT22;12359;49.716;9.212;2022-07-05T02:20:11;14.90;99.90
24224;DHT22;12359;49.716;9.212;2022-07-05T02:22:37;14.80;99.90
24224;DHT22;12359;49.716;9.212;2022-07-05T02:25:03;14.70;99.90
24224;DHT22;12359;49.716;9.212;2022-07-05T02:27:29;14.60;99.90
24224;DHT22;12359;49.716;9.212;2022-07-05T02:29:54;14.60;99.90
24224;DHT22;12359;49.716;9.212;2022-07-05T02:32:20;14.50;99.90
24224;DHT22;12359;49.716;9.212;2022-07-05T02:34:46;14.50;99.90
24224;DHT22;12359;49.716;9.212;2022-07-05T02:37:11;14.50;99.90
24224;DHT22;12359;49.716;9.212;2022-07-05T02:39:37;14.40;99.90
24224;DHT22;12359;49.716;9.212;2022-07-05T02:42:03;14.40;99.90
24224;DHT22;12359;49.716;9.212;2022-07-05T02:44:29;14.50;99.90
24224;DHT22;12359;49.716;9.212;2022-07-05T02:46:54;14.50;99.90
24224;DHT22;12359;49.716;9.212;2022-07-05T02:49:20;14.50;99.90
24224;DHT22;12359;49.716;9.212;2022-07-05T02:51:46;14.50;99.90
24224;DHT22;12359;49.716;9.212;2022-07-05T02:54:11;14.40;99.90
24224;DHT22;12359;49.716;9.212;2022-07-05T02:56:37;14.40;99.90
24224;DHT22;12359;49.716;9.212;2022-07-05T02:59:02;14.40;99.90
24224;DHT22;12359;49.716;9.212;2022-07-05T03:01:29;14.40;99.90
24224;DHT22;12359;49.716;9.212;2022-07-05T03:03:54;14.30;99.90
24224;DHT22;12359;49.716;9.212;2022-07-05T03:06:20;14.40;99.90
24224;DHT22;12359;49.716;9.212;2022-07-05T03:08:45;14.40;99.90
24224;DHT22;12359;49.716;9.212;2022-07-05T03:11:11;14.40;99.90
24224;DHT22;12359;49.716;9.212;2022-07-05T03:13:37;14.40;99.90
24224;DHT22;12359;49.716;9.212;2022-07-05T03:16:03;14.40;99.90
24224;DHT22;12359;49.716;9.212;2022-07-05T03:18:28;14.40;99.90
24224;DHT22;12359;49.716;9.212;2022-07-05T03:20:54;14.40;99.90
24224;DHT22;12359;49.716;9.212;2022-07-05T03:23:20;14.40;99.90
24224;DHT22;12359;49.716;9.212;2022-07-05T03:25:45;14.40;99.90
24224;DHT22;12359;49.716;9.212;2022-07-05T03:28:11;14.30;99.90
24224;DHT22;12359;49.716;9.212;2022-07-05T03:30:37;14.20;99.90
24224;DHT22;12359;49.716;9.212;2022-07-05T03:33:02;14.20;99.90
24224;DHT22;12359;49.716;9.212;2022-07-05T03:35:28;14.20;99.90
24224;DHT22;12359;49.716;9.212;2022-07-05T03:37:54;14.10;99.90
24224;DHT22;12359;49.716;9.212;2022-07-05T03:40:19;14.10;99.90
24224;DHT22;12359;49.716;9.212;2022-07-05T03:42:45;14.10;99.90
24224;DHT22;12359;49.716;9.212;2022-07-05T03:45:11;14.10;99.90
24224;DHT22;12359;49.716;9.212;2022-07-05T03:47:37;14.10;99.90
24224;DHT22;12359;49.716;9.212;2022-07-05T03:50:03;14.20;99.90
24224;DHT22;12359;49.716;9.212;2022-07-05T03:52:29;14.10;99.90
24224;DHT22;12359;49.716;9.212;2022-07-05T03:54:55;14.10;99.90
24224;DHT22;12359;49.716;9.212;2022-07-05T03:57:21;14.10;99.90
24224;DHT22;12359;49.716;9.212;2022-07-05T03:59:47;14.00;99.90
24224;DHT22;12359;49.716;9.212;2022-07-05T04:02:13;14.00;99.90
24224;DHT22;12359;49.716;9.212;2022-07-05T04:04:38;14.10;99.90
24224;DHT22;12359;49.716;9.212;2022-07-05T04:07:04;14.10;99.90
24224;DHT22;12359;49.716;9.212;2022-07-05T04:09:30;14.10;99.90
24224;DHT22;12359;49.716;9.212;2022-07-05T04:11:56;14.30;99.90
24224;DHT22;12359;49.716;9.212;2022-07-05T04:14:21;14.40;99.90
24224;DHT22;12359;49.716;9.212;2022-07-05T04:16:47;14.40;99.90
24224;DHT22;12359;49.716;9.212;2022-07-05T04:19:13;14.40;99.90
24224;DHT22;12359;49.716;9.212;2022-07-05T04:21:38;14.50;99.90
24224;DHT22;12359;49.716;9.212;2022-07-05T04:24:04;14.60;99.90
24224;DHT22;12359;49.716;9.212;2022-07-05T04:26:30;14.60;99.90
24224;DHT22;12359;49.716;9.212;2022-07-05T04:28:56;14.60;99.90
24224;DHT22;12359;49.716;9.212;2022-07-05T04:31:21;14.70;99.90
24224;DHT22;12359;49.716;9.212;2022-07-05T04:33:47;14.70;99.90
24224;DHT22;12359;49.716;9.212;2022-07-05T04:36:13;14.80;99.90
24224;DHT22;12359;49.716;9.212;2022-07-05T04:38:38;14.90;99.90
24224;DHT22;12359;49.716;9.212;2022-07-05T04:41:04;15.00;99.90
24224;DHT22;12359;49.716;9.212;2022-07-05T04:43:30;15.10;99.90
24224;DHT22;12359;49.716;9.212;2022-07-05T04:45:55;15.10;99.90
24224;DHT22;12359;49.716;9.212;2022-07-05T04:48:21;15.30;99.90
24224;DHT22;12359;49.716;9.212;2022-07-05T04:50:47;15.30;99.90
24224;DHT22;12359;49.716;9.212;2022-07-05T04:53:12;15.30;99.90
24224;DHT22;12359;49.716;9.212;2022-07-05T04:55:38;15.30;99.90
24224;DHT22;12359;49.716;9.212;2022-07-05T04:58:04;15.40;99.90
24224;DHT22;12359;49.716;9.212;2022-07-05T05:00:29;15.50;99.90
24224;DHT22;12359;49.716;9.212;2022-07-05T05:02:55;15.70;99.90
24224;DHT22;12359;49.716;9.212;2022-07-05T05:05:20;15.70;99.90
24224;DHT22;12359;49.716;9.212;2022-07-05T05:07:46;15.90;99.90
24224;DHT22;12359;49.716;9.212;2022-07-05T05:10:12;16.00;99.90
24224;DHT22;12359;49.716;9.212;2022-07-05T05:12:38;16.00;99.90
24224;DHT22;12359;49.716;9.212;2022-07-05T05:15:04;15.90;99.90
24224;DHT22;12359;49.716;9.212;2022-07-05T05:17:35;16.00;99.90
24224;DHT22;12359;49.716;9.212;2022-07-05T05:20:03;16.20;99.90
24224;DHT22;12359;49.716;9.212;2022-07-05T05:22:29;16.20;99.90
24224;DHT22;12359;49.716;9.212;2022-07-05T05:24:54;16.30;99.90
24224;DHT22;12359;49.716;9.212;2022-07-05T05:27:20;16.50;99.90
24224;DHT22;12359;49.716;9.212;2022-07-05T05:29:46;16.70;99.90
24224;DHT22;12359;49.716;9.212;2022-07-05T05:32:11;17.00;99.90
24224;DHT22;12359;49.716;9.212;2022-07-05T05:34:37;17.10;99.90
24224;DHT22;12359;49.716;9.212;2022-07-05T05:37:03;17.40;99.90
24224;DHT22;12359;49.716;9.212;2022-07-05T05:39:28;17.70;99.90
24224;DHT22;12359;49.716;9.212;2022-07-05T05:41:54;17.80;99.90
24224;DHT22;12359;49.716;9.212;2022-07-05T05:44:20;18.00;99.90
24224;DHT22;12359;49.716;9.212;2022-07-05T05:46:45;18.10;99.90
24224;DHT22;12359;49.716;9.212;2022-07-05T05:49:11;18.30;99.90
24224;DHT22;12359;49.716;9.212;2022-07-05T05:51:37;18.40;99.90
24224;DHT22;12359;49.716;9.212;2022-07-05T05:54:02;18.80;99.90
24224;DHT22;12359;49.716;9.212;2022-07-05T05:56:28;19.00;99.90
24224;DHT22;12359;49.716;9.212;2022-07-05T05:58:54;19.10;99.90
24224;DHT22;12359;49.716;9.212;2022-07-05T06:01:19;19.20;99.90
24224;DHT22;12359;49.716;9.212;2022-07-05T06:03:45;19.40;99.90
24224;DHT22;12359;49.716;9.212;2022-07-05T06:06:11;19.40;99.90
24224;DHT22;12359;49.716;9.212;2022-07-05T06:08:36;19.50;99.90
24224;DHT22;12359;49.716;9.212;2022-07-05T06:11:02;19.50;99.90
24224;DHT22;12359;49.716;9.212;2022-07-05T06:13:30;19.50;99.90
24224;DHT22;12359;49.716;9.212;2022-07-05T06:15:56;19.50;99.90
24224;DHT22;12359;49.716;9.212;2022-07-05T06:18:21;19.50;99.90
24224;DHT22;12359;49.716;9.212;2022-07-05T06:20:47;19.80;99.90
24224;DHT22;12359;49.716;9.212;2022-07-05T06:23:13;20.10;99.90
24224;DHT22;12359;49.716;9.212;2022-07-05T06:25:39;20.50;99.90
24224;DHT22;12359;49.716;9.212;2022-07-05T06:28:07;20.80;99.60
24224;DHT22;12359;49.716;9.212;2022-07-05T06:30:35;21.10;97.60
24224;DHT22;12359;49.716;9.212;2022-07-05T06:33:02;21.70;95.50
24224;DHT22;12359;49.716;9.212;2022-07-05T06:35:29;22.30;93.60
24224;DHT22;12359;49.716;9.212;2022-07-05T06:38:00;22.90;89.80
24224;DHT22;12359;49.716;9.212;2022-07-05T06:40:33;23.60;81.70
24224;DHT22;12359;49.716;9.212;2022-07-05T06:43:01;23.80;75.20
24224;DHT22;12359;49.716;9.212;2022-07-05T06:45:27;24.40;70.30
24224;DHT22;12359;49.716;9.212;2022-07-05T06:48:04;24.90;66.40
24224;DHT22;12359;49.716;9.212;2022-07-05T06:50:36;25.70;61.50
24224;DHT22;12359;49.716;9.212;2022-07-05T06:53:02;26.00;58.80
24224;DHT22;12359;49.716;9.212;2022-07-05T06:55:28;26.50;57.60
24224;DHT22;12359;49.716;9.212;2022-07-05T06:57:59;26.80;56.70
24224;DHT22;12359;49.716;9.212;2022-07-05T07:00:26;27.30;56.30
24224;DHT22;12359;49.716;9.212;2022-07-05T07:02:51;27.50;55.50
24224;DHT22;12359;49.716;9.212;2022-07-05T07:05:17;27.70;55.60
24224;DHT22;12359;49.716;9.212;2022-07-05T07:07:43;27.90;54.60
24224;DHT22;12359;49.716;9.212;2022-07-05T07:10:27;28.20;52.80
24224;DHT22;12359;49.716;9.212;2022-07-05T07:12:53;29.00;52.40
24224;DHT22;12359;49.716;9.212;2022-07-05T07:15:19;29.30;51.40
24224;DHT22;12359;49.716;9.212;2022-07-05T07:17:45;29.20;50.90
24224;DHT22;12359;49.716;9.212;2022-07-05T07:20:11;29.00;50.60
24224;DHT22;12359;49.716;9.212;2022-07-05T07:22:36;29.20;50.50
24224;DHT22;12359;49.716;9.212;2022-07-05T07:25:02;29.20;49.60
24224;DHT22;12359;49.716;9.212;2022-07-05T07:27:31;29.40;49.50
24224;DHT22;12359;49.716;9.212;2022-07-05T07:29:56;29.00;49.10
24224;DHT22;12359;49.716;9.212;2022-07-05T07:32:22;29.20;50.00
24224;DHT22;12359;49.716;9.212;2022-07-05T07:34:48;29.40;50.60
24224;DHT22;12359;49.716;9.212;2022-07-05T07:37:13;29.60;49.20
24224;DHT22;12359;49.716;9.212;2022-07-05T07:39:40;29.80;48.50
24224;DHT22;12359;49.716;9.212;2022-07-05T07:42:07;29.90;47.90
24224;DHT22;12359;49.716;9.212;2022-07-05T07:44:33;30.10;48.00
24224;DHT22;12359;49.716;9.212;2022-07-05T07:46:59;30.20;48.10
24224;DHT22;12359;49.716;9.212;2022-07-05T07:49:24;30.70;47.60
24224;DHT22;12359;49.716;9.212;2022-07-05T07:51:51;31.00;47.10
24224;DHT22;12359;49.716;9.212;2022-07-05T07:54:16;31.20;45.70
24224;DHT22;12359;49.716;9.212;2022-07-05T07:56:42;31.30;44.70
24224;DHT22;12359;49.716;9.212;2022-07-05T07:59:08;31.30;45.80
24224;DHT22;12359;49.716;9.212;2022-07-05T08:01:34;31.10;45.00
24224;DHT22;12359;49.716;9.212;2022-07-05T08:04:00;31.10;44.50
24224;DHT22;12359;49.716;9.212;2022-07-05T08:06:26;31.30;43.60
24224;DHT22;12359;49.716;9.212;2022-07-05T08:08:51;31.30;44.20
24224;DHT22;12359;49.716;9.212;2022-07-05T08:11:17;31.10;43.70
24224;DHT22;12359;49.716;9.212;2022-07-05T08:13:43;31.00;43.20
24224;DHT22;12359;49.716;9.212;2022-07-05T08:16:09;30.80;43.50
24224;DHT22;12359;49.716;9.212;2022-07-05T08:18:36;31.00;43.90
24224;DHT22;12359;49.716;9.212;2022-07-05T08:21:20;31.40;43.30
24224;DHT22;12359;49.716;9.212;2022-07-05T08:24:09;31.60;42.50
24224;DHT22;12359;49.716;9.212;2022-07-05T08:26:36;31.70;42.20
24224;DHT22;12359;49.716;9.212;2022-07-05T08:29:04;31.70;41.90
24224;DHT22;12359;49.716;9.212;2022-07-05T08:31:33;31.70;42.70
24224;DHT22;12359;49.716;9.212;2022-07-05T08:34:00;31.70;42.80
24224;DHT22;12359;49.716;9.212;2022-07-05T08:36:26;31.60;43.60
24224;DHT22;12359;49.716;9.212;2022-07-05T08:38:52;31.20;43.30
24224;DHT22;12359;49.716;9.212;2022-07-05T08:41:19;31.40;44.30
24224;DHT22;12359;49.716;9.212;2022-07-05T08:43:46;31.70;43.30
24224;DHT22;12359;49.716;9.212;2022-07-05T08:46:14;31.80;43.20
24224;DHT22;12359;49.716;9.212;2022-07-05T08:48:44;31.90;43.30
24224;DHT22;12359;49.716;9.212;2022-07-05T08:51:13;32.00;43.00
24224;DHT22;12359;49.716;9.212;2022-07-05T08:53:40;31.90;43.70
24224;DHT22;12359;49.716;9.212;2022-07-05T08:56:08;32.10;42.90
24224;DHT22;12359;49.716;9.212;2022-07-05T08:58:35;32.10;42.90
24224;DHT22;12359;49.716;9.212;2022-07-05T09:01:01;32.20;43.10
24224;DHT22;12359;49.716;9.212;2022-07-05T09:03:33;32.70;42.30
24224;DHT22;12359;49.716;9.212;2022-07-05T09:06:06;33.00;42.50
24224;DHT22;12359;49.716;9.212;2022-07-05T09:08:35;33.00;42.50
24224;DHT22;12359;49.716;9.212;2022-07-05T09:11:09;33.10;41.40
24224;DHT22;12359;49.716;9.212;2022-07-05T09:13:43;33.20;40.90
24224;DHT22;12359;49.716;9.212;2022-07-05T09:16:09;33.70;39.20
24224;DHT22;12359;49.716;9.212;2022-07-05T09:21:20;33.50;39.60
24224;DHT22;12359;49.716;9.212;2022-07-05T09:24:13;33.00;39.70
24224;DHT22;12359;49.716;9.212;2022-07-05T09:26:41;31.90;41.20
24224;DHT22;12359;49.716;9.212;2022-07-05T09:29:12;31.50;41.50
24224;DHT22;12359;49.716;9.212;2022-07-05T09:31:40;32.10;41.10
24224;DHT22;12359;49.716;9.212;2022-07-05T09:34:10;32.60;41.50
24224;DHT22;12359;49.716;9.212;2022-07-05T09:36:52;33.20;41.80
24224;DHT22;12359;49.716;9.212;2022-07-05T09:39:19;32.90;40.80
24224;DHT22;12359;49.716;9.212;2022-07-05T09:42:18;32.80;41.50
24224;DHT22;12359;49.716;9.212;2022-07-05T09:44:55;33.40;40.80
24224;DHT22;12359;49.716;9.212;2022-07-05T09:47:22;33.50;40.60
24224;DHT22;12359;49.716;9.212;2022-07-05T09:49:50;33.70;40.80
24224;DHT22;12359;49.716;9.212;2022-07-05T09:57:31;32.30;40.80
24224;DHT22;12359;49.716;9.212;2022-07-05T10:00:03;31.40;40.60
24224;DHT22;12359;49.716;9.212;2022-07-05T10:02:46;30.60;41.80
24224;DHT22;12359;49.716;9.212;2022-07-05T10:05:22;29.60;42.40
24224;DHT22;12359;49.716;9.212;2022-07-05T10:10:22;29.70;44.40
24224;DHT22;12359;49.716;9.212;2022-07-05T10:12:50;30.30;43.30
24224;DHT22;12359;49.716;9.212;2022-07-05T10:15:19;31.10;42.60
24224;DHT22;12359;49.716;9.212;2022-07-05T10:17:50;31.70;42.00
24224;DHT22;12359;49.716;9.212;2022-07-05T10:22:49;32.50;41.40
24224;DHT22;12359;49.716;9.212;2022-07-05T10:25:15;32.10;39.90
24224;DHT22;12359;49.716;9.212;2022-07-05T10:27:42;31.40;41.10
24224;DHT22;12359;49.716;9.212;2022-07-05T10:30:10;31.20;41.70
24224;DHT22;12359;49.716;9.212;2022-07-05T10:32:38;31.70;41.90
24224;DHT22;12359;49.716;9.212;2022-07-05T10:35:05;32.00;39.60
24224;DHT22;12359;49.716;9.212;2022-07-05T10:37:32;32.30;40.60
24224;DHT22;12359;49.716;9.212;2022-07-05T10:40:00;32.50;39.90
24224;DHT22;12359;49.716;9.212;2022-07-05T10:42:48;32.80;41.60
24224;DHT22;12359;49.716;9.212;2022-07-05T10:45:30;31.90;39.40
24224;DHT22;12359;49.716;9.212;2022-07-05T10:53:15;31.30;41.80
24224;DHT22;12359;49.716;9.212;2022-07-05T11:00:46;32.30;39.80
24224;DHT22;12359;49.716;9.212;2022-07-05T11:03:36;31.70;40.30
24224;DHT22;12359;49.716;9.212;2022-07-05T11:06:02;31.00;40.70
24224;DHT22;12359;49.716;9.212;2022-07-05T11:08:29;30.80;42.20
24224;DHT22;12359;49.716;9.212;2022-07-05T11:11:12;30.60;42.00
24224;DHT22;12359;49.716;9.212;2022-07-05T11:13:42;30.00;41.40
24224;DHT22;12359;49.716;9.212;2022-07-05T11:16:28;29.30;41.70
24224;DHT22;12359;49.716;9.212;2022-07-05T11:19:10;28.90;42.40
24224;DHT22;12359;49.716;9.212;2022-07-05T11:21:38;29.10;42.90
24224;DHT22;12359;49.716;9.212;2022-07-05T11:24:24;30.00;43.00
24224;DHT22;12359;49.716;9.212;2022-07-05T11:26:52;30.40;42.00
24224;DHT22;12359;49.716;9.212;2022-07-05T11:34:42;31.50;42.00
24224;DHT22;12359;49.716;9.212;2022-07-05T11:39:43;32.00;41.70
24224;DHT22;12359;49.716;9.212;2022-07-05T11:42:10;32.30;41.20
24224;DHT22;12359;49.716;9.212;2022-07-05T11:44:36;32.50;40.90
24224;DHT22;12359;49.716;9.212;2022-07-05T11:47:03;32.70;40.50
24224;DHT22;12359;49.716;9.212;2022-07-05T11:49:29;32.90;40.00
24224;DHT22;12359;49.716;9.212;2022-07-05T11:51:58;32.90;39.60
24224;DHT22;12359;49.716;9.212;2022-07-05T11:54:26;33.20;39.40
24224;DHT22;12359;49.716;9.212;2022-07-05T11:56:52;33.10;38.90
24224;DHT22;12359;49.716;9.212;2022-07-05T11:59:21;33.30;39.30
24224;DHT22;12359;49.716;9.212;2022-07-05T12:01:48;33.40;39.40
24224;DHT22;12359;49.716;9.212;2022-07-05T12:04:28;33.30;39.30
24224;DHT22;12359;49.716;9.212;2022-07-05T12:06:54;33.30;39.00
24224;DHT22;12359;49.716;9.212;2022-07-05T12:09:26;33.20;39.30
24224;DHT22;12359;49.716;9.212;2022-07-05T12:11:54;33.10;38.40
24224;DHT22;12359;49.716;9.212;2022-07-05T12:14:49;32.50;38.40
24224;DHT22;12359;49.716;9.212;2022-07-05T12:17:18;31.90;39.90
24224;DHT22;12359;49.716;9.212;2022-07-05T12:19:45;31.60;39.90
24224;DHT22;12359;49.716;9.212;2022-07-05T12:22:11;31.90;40.60
24224;DHT22;12359;49.716;9.212;2022-07-05T12:24:37;32.20;39.10
24224;DHT22;12359;49.716;9.212;2022-07-05T12:27:03;32.50;38.50
24224;DHT22;12359;49.716;9.212;2022-07-05T12:29:30;32.90;38.00
24224;DHT22;12359;49.716;9.212;2022-07-05T12:32:04;33.10;38.30
24224;DHT22;12359;49.716;9.212;2022-07-05T12:34:31;33.10;38.90
24224;DHT22;12359;49.716;9.212;2022-07-05T12:36:57;33.00;38.60
24224;DHT22;12359;49.716;9.212;2022-07-05T12:39:23;32.90;37.00
24224;DHT22;12359;49.716;9.212;2022-07-05T12:41:49;32.80;37.60
24224;DHT22;12359;49.716;9.212;2022-07-05T12:44:21;32.70;37.70
24224;DHT22;12359;49.716;9.212;2022-07-05T12:46:47;32.50;37.40
24224;DHT22;12359;49.716;9.212;2022-07-05T12:49:17;32.70;38.00
24224;DHT22;12359;49.716;9.212;2022-07-05T12:51:44;32.50;36.90
24224;DHT22;12359;49.716;9.212;2022-07-05T12:54:26;32.80;38.00
24224;DHT22;12359;49.716;9.212;2022-07-05T12:57:14;32.80;37.30
24224;DHT22;12359;49.716;9.212;2022-07-05T13:00:06;32.90;37.20
24224;DHT22;12359;49.716;9.212;2022-07-05T13:05:18;32.70;37.50
24224;DHT22;12359;49.716;9.212;2022-07-05T13:07:45;32.70;37.50
24224;DHT22;12359;49.716;9.212;2022-07-05T13:10:17;32.90;37.80
24224;DHT22;12359;49.716;9.212;2022-07-05T13:12:44;32.80;38.00
24224;DHT22;12359;49.716;9.212;2022-07-05T13:15:09;32.70;37.80
24224;DHT22;12359;49.716;9.212;2022-07-05T13:17:36;32.70;37.10
24224;DHT22;12359;49.716;9.212;2022-07-05T13:20:02;32.90;37.40
24224;DHT22;12359;49.716;9.212;2022-07-05T13:22:29;32.40;38.40
24224;DHT22;12359;49.716;9.212;2022-07-05T13:24:55;32.40;38.00
24224;DHT22;12359;49.716;9.212;2022-07-05T13:27:20;32.30;38.50
24224;DHT22;12359;49.716;9.212;2022-07-05T13:29:47;32.20;37.00
24224;DHT22;12359;49.716;9.212;2022-07-05T13:32:14;32.00;38.80
24224;DHT22;12359;49.716;9.212;2022-07-05T13:34:42;32.30;38.70
24224;DHT22;12359;49.716;9.212;2022-07-05T13:37:08;32.40;38.20
24224;DHT22;12359;49.716;9.212;2022-07-05T13:39:34;32.50;38.20
24224;DHT22;12359;49.716;9.212;2022-07-05T13:41:59;32.50;37.30
24224;DHT22;12359;49.716;9.212;2022-07-05T13:44:25;32.60;37.90
24224;DHT22;12359;49.716;9.212;2022-07-05T13:46:51;32.30;37.60
24224;DHT22;12359;49.716;9.212;2022-07-05T13:49:17;32.20;37.60
24224;DHT22;12359;49.716;9.212;2022-07-05T13:51:43;31.90;37.30
24224;DHT22;12359;49.716;9.212;2022-07-05T13:54:08;31.50;38.00
24224;DHT22;12359;49.716;9.212;2022-07-05T13:56:34;31.50;38.40
24224;DHT22;12359;49.716;9.212;2022-07-05T13:59:03;30.90;38.10
24224;DHT22;12359;49.716;9.212;2022-07-05T14:01:29;30.60;39.00
24224;DHT22;12359;49.716;9.212;2022-07-05T14:03:57;30.50;39.20
24224;DHT22;12359;49.716;9.212;2022-07-05T14:06:25;30.50;39.00
24224;DHT22;12359;49.716;9.212;2022-07-05T14:08:50;30.20;38.60
24224;DHT22;12359;49.716;9.212;2022-07-05T14:11:16;30.10;38.40
24224;DHT22;12359;49.716;9.212;2022-07-05T14:13:42;30.10;39.20
24224;DHT22;12359;49.716;9.212;2022-07-05T14:16:07;30.20;39.80
24224;DHT22;12359;49.716;9.212;2022-07-05T14:18:33;30.40;39.60
24224;DHT22;12359;49.716;9.212;2022-07-05T14:20:59;30.20;39.30
24224;DHT22;12359;49.716;9.212;2022-07-05T14:23:26;30.10;39.70
24224;DHT22;12359;49.716;9.212;2022-07-05T14:25:51;30.40;39.50
24224;DHT22;12359;49.716;9.212;2022-07-05T14:28:17;30.40;38.70
24224;DHT22;12359;49.716;9.212;2022-07-05T14:30:44;30.70;39.40
24224;DHT22;12359;49.716;9.212;2022-07-05T14:33:11;30.60;39.00
24224;DHT22;12359;49.716;9.212;2022-07-05T14:35:37;30.60;39.50
24224;DHT22;12359;49.716;9.212;2022-07-05T14:38:03;30.70;39.60
24224;DHT22;12359;49.716;9.212;2022-07-05T14:40:29;30.90;39.70
24224;DHT22;12359;49.716;9.212;2022-07-05T14:42:56;31.00;39.60
24224;DHT22;12359;49.716;9.212;2022-07-05T14:45:26;30.90;38.40
24224;DHT22;12359;49.716;9.212;2022-07-05T14:47:52;30.90;38.90
24224;DHT22;12359;49.716;9.212;2022-07-05T14:50:18;30.50;38.70
24224;DHT22;12359;49.716;9.212;2022-07-05T14:52:46;30.00;39.00
24224;DHT22;12359;49.716;9.212;2022-07-05T14:55:13;29.70;39.40
24224;DHT22;12359;49.716;9.212;2022-07-05T14:57:39;29.60;39.20
24224;DHT22;12359;49.716;9.212;2022-07-05T15:00:07;29.50;39.60
24224;DHT22;12359;49.716;9.212;2022-07-05T15:02:34;29.60;40.30
24224;DHT22;12359;49.716;9.212;2022-07-05T15:04:59;29.80;40.20
24224;DHT22;12359;49.716;9.212;2022-07-05T15:07:25;30.00;40.10
24224;DHT22;12359;49.716;9.212;2022-07-05T15:09:51;30.00;39.30
24224;DHT22;12359;49.716;9.212;2022-07-05T15:12:17;30.10;39.70
24224;DHT22;12359;49.716;9.212;2022-07-05T15:14:43;30.10;39.10
24224;DHT22;12359;49.716;9.212;2022-07-05T15:17:09;30.20;38.60
24224;DHT22;12359;49.716;9.212;2022-07-05T15:19:35;30.10;39.00
24224;DHT22;12359;49.716;9.212;2022-07-05T15:22:01;30.10;39.40
24224;DHT22;12359;49.716;9.212;2022-07-05T15:24:27;29.80;39.40
24224;DHT22;12359;49.716;9.212;2022-07-05T15:26:53;29.60;39.80
24224;DHT22;12359;49.716;9.212;2022-07-05T15:29:18;29.30;40.30
24224;DHT22;12359;49.716;9.212;2022-07-05T15:31:44;29.40;40.00
24224;DHT22;12359;49.716;9.212;2022-07-05T15:34:10;29.20;40.20
24224;DHT22;12359;49.716;9.212;2022-07-05T15:36:37;29.10;39.50
24224;DHT22;12359;49.716;9.212;2022-07-05T15:39:05;29.10;39.80
24224;DHT22;12359;49.716;9.212;2022-07-05T15:41:31;29.20;40.80
24224;DHT22;12359;49.716;9.212;2022-07-05T15:43:58;29.20;40.40
24224;DHT22;12359;49.716;9.212;2022-07-05T15:46:24;29.20;40.60
24224;DHT22;12359;49.716;9.212;2022-07-05T15:48:50;29.10;40.50
24224;DHT22;12359;49.716;9.212;2022-07-05T15:51:17;29.10;39.80
24224;DHT22;12359;49.716;9.212;2022-07-05T15:53:43;29.10;40.40
24224;DHT22;12359;49.716;9.212;2022-07-05T15:56:09;29.10;40.30
24224;DHT22;12359;49.716;9.212;2022-07-05T15:58:35;28.90;40.40
24224;DHT22;12359;49.716;9.212;2022-07-05T16:01:02;28.80;39.70
24224;DHT22;12359;49.716;9.212;2022-07-05T16:03:29;28.70;40.20
24224;DHT22;12359;49.716;9.212;2022-07-05T16:05:59;28.80;40.20